sensor_id;sensor_type;location;lat;lon;timestamp;pressure;altitude;pressure_sealevel;temperature;humidity
75438;BME280;64015;49.392;15.582;2023-03-01T00:01:03;96666.84;;;-4.73;97.56
75438;BME280;64015;49.392;15.582;2023-03-01T00:03:29;96660.34;;;-4.77;97.64
75438;BME280;64015;49.392;15.582;2023-03-01T00:05:55;96655.16;;;-4.85;98.43
75438;BME280;64015;49.392;15.582;2023-03-01T00:08:20;96657.53;;;-4.92;99.52
75438;BME280;64015;49.392;15.582;2023-03-01T00:10:46;96653.19;;;-4.92;99.28
75438;BME280;64015;49.392;15.582;2023-03-01T00:13:12;96645.75;;;-4.95;98.62
75438;BME280;64015;49.392;15.582;2023-03-01T00:15:39;96654.56;;;-4.97;98.92
75438;BME280;64015;49.392;15.582;2023-03-01T00:18:05;96652.97;;;-4.98;100.00
75438;BME280;64015;49.392;15.582;2023-03-01T00:20:31;96649.72;;;-5.00;100.00
75438;BME280;64015;49.392;15.582;2023-03-01T00:22:56;96645.56;;;-5.01;100.00
75438;BME280;64015;49.392;15.582;2023-03-01T00:25:22;96649.09;;;-5.02;100.00
75438;BME280;64015;49.392;15.582;2023-03-01T00:27:48;96642.47;;;-5.05;100.00
75438;BME280;64015;49.392;15.582;2023-03-01T00:30:14;96643.56;;;-5.07;100.00
75438;BME280;64015;49.392;15.582;2023-03-01T00:32:40;96643.78;;;-5.01;99.68
75438;BME280;64015;49.392;15.582;2023-03-01T00:35:06;96642.75;;;-5.08;99.56
75438;BME280;64015;49.392;15.582;2023-03-01T00:37:32;96645.78;;;-5.12;99.32
75438;BME280;64015;49.392;15.582;2023-03-01T00:39:58;96652.47;;;-5.19;100.00
75438;BME280;64015;49.392;15.582;2023-03-01T00:42:23;96639.25;;;-5.24;100.00
75438;BME280;64015;49.392;15.582;2023-03-01T00:44:49;96642.09;;;-5.28;100.00
75438;BME280;64015;49.392;15.582;2023-03-01T00:47:15;96641.47;;;-5.30;100.00
75438;BME280;64015;49.392;15.582;2023-03-01T00:49:40;96639.47;;;-5.36;100.00
75438;BME280;64015;49.392;15.582;2023-03-01T00:52:06;96641.75;;;-5.33;100.00
75438;BME280;64015;49.392;15.582;2023-03-01T00:54:34;96635.13;;;-5.35;100.00
75438;BME280;64015;49.392;15.582;2023-03-01T00:57:03;96626.25;;;-5.41;99.70
75438;BME280;64015;49.392;15.582;2023-03-01T00:59:29;96633.16;;;-5.41;100.00
75438;BME280;64015;49.392;15.582;2023-03-01T01:01:55;96626.53;;;-5.44;100.00
75438;BME280;64015;49.392;15.582;2023-03-01T01:04:20;96628.44;;;-5.46;100.00
75438;BME280;64015;49.392;15.582;2023-03-01T01:06:46;96622.66;;;-5.48;100.00
75438;BME280;64015;49.392;15.582;2023-03-01T01:09:15;96634.97;;;-5.51;100.00
75438;BME280;64015;49.392;15.582;2023-03-01T01:11:46;96625.13;;;-5.56;100.00
75438;BME280;64015;49.392;15.582;2023-03-01T01:14:12;96623.16;;;-5.62;100.00
75438;BME280;64015;49.392;15.582;2023-03-01T01:16:38;96615.28;;;-5.60;100.00
75438;BME280;64015;49.392;15.582;2023-03-01T01:19:04;96613.69;;;-5.61;100.00
75438;BME280;64015;49.392;15.582;2023-03-01T01:21:30;96613.16;;;-5.65;100.00
75438;BME280;64015;49.392;15.582;2023-03-01T01:23:56;96616.69;;;-5.66;100.00
75438;BME280;64015;49.392;15.582;2023-03-01T01:26:24;96613.16;;;-5.65;100.00
75438;BME280;64015;49.392;15.582;2023-03-01T01:28:51;96604.13;;;-5.69;100.00
75438;BME280;64015;49.392;15.582;2023-03-01T01:31:17;96607.38;;;-5.67;100.00
75438;BME280;64015;49.392;15.582;2023-03-01T01:33:44;96601.97;;;-5.74;100.00
75438;BME280;64015;49.392;15.582;2023-03-01T01:36:28;96604.88;;;-5.77;100.00
75438;BME280;64015;49.392;15.582;2023-03-01T01:38:55;96607.84;;;-5.81;100.00
75438;BME280;64015;49.392;15.582;2023-03-01T01:41:21;96609.47;;;-5.80;100.00
75438;BME280;64015;49.392;15.582;2023-03-01T01:44:08;96606.22;;;-5.82;100.00
75438;BME280;64015;49.392;15.582;2023-03-01T01:49:19;96596.28;;;-5.85;100.00
75438;BME280;64015;49.392;15.582;2023-03-01T01:51:49;96599.16;;;-5.88;100.00
75438;BME280;64015;49.392;15.582;2023-03-01T01:54:42;96595.09;;;-5.91;100.00
75438;BME280;64015;49.392;15.582;2023-03-01T01:57:09;96586.59;;;-5.91;100.00
75438;BME280;64015;49.392;15.582;2023-03-01T01:59:39;96588.50;;;-5.93;100.00
75438;BME280;64015;49.392;15.582;2023-03-01T02:02:06;96584.31;;;-5.94;100.00
75438;BME280;64015;49.392;15.582;2023-03-01T02:04:35;96586.22;;;-5.96;100.00
75438;BME280;64015;49.392;15.582;2023-03-01T02:07:05;96584.59;;;-5.97;100.00
75438;BME280;64015;49.392;15.582;2023-03-01T02:09:33;96579.47;;;-5.97;100.00
75438;BME280;64015;49.392;15.582;2023-03-01T02:11:59;96568.38;;;-5.98;100.00
75438;BME280;64015;49.392;15.582;2023-03-01T02:14:29;96585.94;;;-5.93;100.00
75438;BME280;64015;49.392;15.582;2023-03-01T02:16:54;96577.19;;;-6.00;100.00
75438;BME280;64015;49.392;15.582;2023-03-01T02:19:58;96576.63;;;-5.94;100.00
75438;BME280;64015;49.392;15.582;2023-03-01T02:22:29;96577.19;;;-6.00;100.00
75438;BME280;64015;49.392;15.582;2023-03-01T02:30:11;96587.38;;;-6.09;100.00
75438;BME280;64015;49.392;15.582;2023-03-01T02:32:41;96587.22;;;-6.07;100.00
75438;BME280;64015;49.392;15.582;2023-03-01T02:35:13;96596.69;;;-6.08;100.00
75438;BME280;64015;49.392;15.582;2023-03-01T02:37:41;96585.38;;;-6.15;100.00
75438;BME280;64015;49.392;15.582;2023-03-01T02:40:08;96587.00;;;-6.14;100.00
75438;BME280;64015;49.392;15.582;2023-03-01T02:42:42;96589.72;;;-6.15;100.00
75438;BME280;64015;49.392;15.582;2023-03-01T02:45:11;96585.16;;;-6.21;100.00
75438;BME280;64015;49.392;15.582;2023-03-01T02:47:36;96580.28;;;-6.24;100.00
75438;BME280;64015;49.392;15.582;2023-03-01T02:50:02;96587.19;;;-6.25;100.00
75438;BME280;64015;49.392;15.582;2023-03-01T02:52:52;96578.53;;;-6.24;100.00
75438;BME280;64015;49.392;15.582;2023-03-01T02:55:20;96582.34;;;-6.28;100.00
75438;BME280;64015;49.392;15.582;2023-03-01T02:57:47;96570.44;;;-6.29;100.00
75438;BME280;64015;49.392;15.582;2023-03-01T03:00:23;96574.63;;;-6.28;100.00
75438;BME280;64015;49.392;15.582;2023-03-01T03:02:54;96576.25;;;-6.27;100.00
75438;BME280;64015;49.392;15.582;2023-03-01T03:08:11;96574.94;;;-6.31;100.00
75438;BME280;64015;49.392;15.582;2023-03-01T03:10:40;96584.09;;;-6.28;100.00
75438;BME280;64015;49.392;15.582;2023-03-01T03:13:11;96575.56;;;-6.29;100.00
75438;BME280;64015;49.392;15.582;2023-03-01T03:15:39;96585.72;;;-6.27;100.00
75438;BME280;64015;49.392;15.582;2023-03-01T03:18:08;96574.34;;;-6.25;100.00
75438;BME280;64015;49.392;15.582;2023-03-01T03:20:35;96574.78;;;-6.29;100.00
75438;BME280;64015;49.392;15.582;2023-03-01T03:23:01;96581.09;;;-6.24;100.00
75438;BME280;64015;49.392;15.582;2023-03-01T03:25:28;96575.56;;;-6.29;100.00
75438;BME280;64015;49.392;15.582;2023-03-01T03:27:55;96573.31;;;-6.32;100.00
75438;BME280;64015;49.392;15.582;2023-03-01T03:30:29;96582.09;;;-6.34;100.00
75438;BME280;64015;49.392;15.582;2023-03-01T03:32:56;96566.69;;;-6.34;100.00
75438;BME280;64015;49.392;15.582;2023-03-01T03:35:30;96564.41;;;-6.37;100.00
75438;BME280;64015;49.392;15.582;2023-03-01T03:37:56;96565.34;;;-6.38;100.00
75438;BME280;64015;49.392;15.582;2023-03-01T03:40:38;96563.91;;;-6.41;100.00
75438;BME280;64015;49.392;15.582;2023-03-01T03:43:09;96555.94;;;-6.48;100.00
75438;BME280;64015;49.392;15.582;2023-03-01T03:45:35;96565.41;;;-6.48;100.00
75438;BME280;64015;49.392;15.582;2023-03-01T03:48:03;96566.38;;;-6.49;100.00
75438;BME280;64015;49.392;15.582;2023-03-01T03:50:30;96568.94;;;-6.49;100.00
75438;BME280;64015;49.392;15.582;2023-03-01T03:52:56;96566.66;;;-6.52;100.00
75438;BME280;64015;49.392;15.582;2023-03-01T03:55:22;96567.47;;;-6.52;100.00
75438;BME280;64015;49.392;15.582;2023-03-01T03:57:48;96570.97;;;-6.53;100.00
75438;BME280;64015;49.392;15.582;2023-03-01T04:00:19;96570.16;;;-6.53;100.00
75438;BME280;64015;49.392;15.582;2023-03-01T04:02:46;96577.72;;;-6.52;100.00
75438;BME280;64015;49.392;15.582;2023-03-01T04:05:15;96564.22;;;-6.54;100.00
75438;BME280;64015;49.392;15.582;2023-03-01T04:07:41;96572.06;;;-6.55;100.00
75438;BME280;64015;49.392;15.582;2023-03-01T04:10:14;96572.06;;;-6.55;100.00
75438;BME280;64015;49.392;15.582;2023-03-01T04:12:40;96574.63;;;-6.55;100.00
75438;BME280;64015;49.392;15.582;2023-03-01T04:15:06;96568.53;;;-6.54;100.00
75438;BME280;64015;49.392;15.582;2023-03-01T04:17:46;96576.91;;;-6.52;100.00
75438;BME280;64015;49.392;15.582;2023-03-01T04:20:16;96571.09;;;-6.54;100.00
75438;BME280;64015;49.392;15.582;2023-03-01T04:23:00;96568.81;;;-6.57;100.00
75438;BME280;64015;49.392;15.582;2023-03-01T04:28:41;96574.25;;;-6.60;100.00
75438;BME280;64015;49.392;15.582;2023-03-01T04:31:13;96571.00;;;-6.62;100.00
75438;BME280;64015;49.392;15.582;2023-03-01T04:33:50;96575.34;;;-6.63;100.00
75438;BME280;64015;49.392;15.582;2023-03-01T04:36:18;96571.69;;;-6.60;100.00
75438;BME280;64015;49.392;15.582;2023-03-01T04:38:44;96565.75;;;-6.61;100.00
75438;BME280;64015;49.392;15.582;2023-03-01T04:41:14;96566.97;;;-6.65;100.00
75438;BME280;64015;49.392;15.582;2023-03-01T04:43:40;96569.84;;;-6.68;100.00
75438;BME280;64015;49.392;15.582;2023-03-01T04:46:08;96567.78;;;-6.64;100.00
75438;BME280;64015;49.392;15.582;2023-03-01T04:48:36;96565.22;;;-6.64;100.00
75438;BME280;64015;49.392;15.582;2023-03-01T04:51:03;96567.78;;;-6.64;100.00
75438;BME280;64015;49.392;15.582;2023-03-01T04:53:29;96569.66;;;-6.66;100.00
75438;BME280;64015;49.392;15.582;2023-03-01T04:55:56;96564.53;;;-6.66;100.00
75438;BME280;64015;49.392;15.582;2023-03-01T04:58:24;96560.38;;;-6.67;100.00
75438;BME280;64015;49.392;15.582;2023-03-01T05:00:50;96559.69;;;-6.69;100.00
75438;BME280;64015;49.392;15.582;2023-03-01T05:03:15;96557.00;;;-6.68;100.00
75438;BME280;64015;49.392;15.582;2023-03-01T05:05:45;96558.91;;;-6.70;100.00
75438;BME280;64015;49.392;15.582;2023-03-01T05:08:11;96555.06;;;-6.66;100.00
75438;BME280;64015;49.392;15.582;2023-03-01T05:10:45;96557.00;;;-6.68;100.00
75438;BME280;64015;49.392;15.582;2023-03-01T05:13:13;96561.16;;;-6.67;100.00
75438;BME280;64015;49.392;15.582;2023-03-01T05:15:39;96553.47;;;-6.67;100.00
75438;BME280;64015;49.392;15.582;2023-03-01T05:18:05;96549.44;;;-6.69;100.00
75438;BME280;64015;49.392;15.582;2023-03-01T05:20:37;96550.53;;;-6.72;100.00
75438;BME280;64015;49.392;15.582;2023-03-01T05:23:03;96547.56;;;-6.67;100.00
75438;BME280;64015;49.392;15.582;2023-03-01T05:25:31;96545.41;;;-6.72;100.00
75438;BME280;64015;49.392;15.582;2023-03-01T05:28:02;96540.53;;;-6.75;100.00
75438;BME280;64015;49.392;15.582;2023-03-01T05:30:32;96534.31;;;-6.72;100.00
75438;BME280;64015;49.392;15.582;2023-03-01T05:32:58;96536.75;;;-6.71;100.00
75438;BME280;64015;49.392;15.582;2023-03-01T05:35:24;96536.31;;;-6.66;100.00
75438;BME280;64015;49.392;15.582;2023-03-01T05:37:51;96536.47;;;-6.68;100.00
75438;BME280;64015;49.392;15.582;2023-03-01T05:40:22;96531.34;;;-6.68;100.00
75438;BME280;64015;49.392;15.582;2023-03-01T05:42:55;96527.31;;;-6.70;100.00
75438;BME280;64015;49.392;15.582;2023-03-01T05:45:23;96530.00;;;-6.72;100.00
75438;BME280;64015;49.392;15.582;2023-03-01T05:47:50;96534.59;;;-6.75;100.00
75438;BME280;64015;49.392;15.582;2023-03-01T05:52:50;96535.16;;;-6.82;100.00
75438;BME280;64015;49.392;15.582;2023-03-01T05:55:19;96535.97;;;-6.81;100.00
75438;BME280;64015;49.392;15.582;2023-03-01T05:57:46;96533.59;;;-6.65;100.00
75438;BME280;64015;49.392;15.582;2023-03-01T06:00:13;96538.59;;;-6.63;100.00
75438;BME280;64015;49.392;15.582;2023-03-01T06:02:39;96526.72;;;-6.64;100.00
75438;BME280;64015;49.392;15.582;2023-03-01T06:05:07;96526.19;;;-6.58;100.00
75438;BME280;64015;49.392;15.582;2023-03-01T06:07:33;96530.72;;;-6.52;100.00
75438;BME280;64015;49.392;15.582;2023-03-01T06:10:03;96536.53;;;-6.50;100.00
75438;BME280;64015;49.392;15.582;2023-03-01T06:12:31;96537.13;;;-6.38;100.00
75438;BME280;64015;49.392;15.582;2023-03-01T06:14:57;96546.44;;;-6.37;100.00
75438;BME280;64015;49.392;15.582;2023-03-01T06:17:25;96532.66;;;-6.36;100.00
75438;BME280;64015;49.392;15.582;2023-03-01T06:19:59;96543.47;;;-6.33;100.00
75438;BME280;64015;49.392;15.582;2023-03-01T06:22:25;96548.69;;;-6.25;100.00
75438;BME280;64015;49.392;15.582;2023-03-01T06:24:51;96535.13;;;-6.17;100.00
75438;BME280;64015;49.392;15.582;2023-03-01T06:27:16;96538.88;;;-6.12;100.00
75438;BME280;64015;49.392;15.582;2023-03-01T06:29:42;96544.09;;;-6.04;100.00
75438;BME280;64015;49.392;15.582;2023-03-01T06:32:08;96545.41;;;-5.99;100.00
75438;BME280;64015;49.392;15.582;2023-03-01T06:34:33;96546.78;;;-5.87;100.00
75438;BME280;64015;49.392;15.582;2023-03-01T06:36:59;96538.28;;;-5.70;100.00
75438;BME280;64015;49.392;15.582;2023-03-01T06:39:27;96547.16;;;-5.65;100.00
75438;BME280;64015;49.392;15.582;2023-03-01T06:41:53;96545.75;;;-5.59;100.00
75438;BME280;64015;49.392;15.582;2023-03-01T06:44:19;96540.88;;;-5.44;100.00
75438;BME280;64015;49.392;15.582;2023-03-01T06:46:44;96534.72;;;-5.34;100.00
75438;BME280;64015;49.392;15.582;2023-03-01T06:49:10;96537.03;;;-5.22;100.00
75438;BME280;64015;49.392;15.582;2023-03-01T06:51:36;96525.84;;;-5.13;100.00
75438;BME280;64015;49.392;15.582;2023-03-01T06:54:06;96520.47;;;-5.02;100.00
75438;BME280;64015;49.392;15.582;2023-03-01T06:56:32;96522.41;;;-4.96;100.00
75438;BME280;64015;49.392;15.582;2023-03-01T06:58:57;96519.78;;;-4.78;100.00
75438;BME280;64015;49.392;15.582;2023-03-01T07:01:24;96521.09;;;-4.74;100.00
75438;BME280;64015;49.392;15.582;2023-03-01T07:03:49;96529.84;;;-4.59;99.22
75438;BME280;64015;49.392;15.582;2023-03-01T07:06:16;96524.06;;;-4.53;98.72
75438;BME280;64015;49.392;15.582;2023-03-01T07:08:43;96519.75;;;-4.44;98.11
75438;BME280;64015;49.392;15.582;2023-03-01T07:11:09;96525.31;;;-4.23;97.20
75438;BME280;64015;49.392;15.582;2023-03-01T07:13:34;96519.56;;;-4.17;96.45
75438;BME280;64015;49.392;15.582;2023-03-01T07:16:00;96522.44;;;-4.12;94.83
75438;BME280;64015;49.392;15.582;2023-03-01T07:18:26;96516.34;;;-4.11;94.98
75438;BME280;64015;49.392;15.582;2023-03-01T07:20:52;96526.66;;;-4.03;94.94
75438;BME280;64015;49.392;15.582;2023-03-01T07:23:19;96528.13;;;-3.92;93.88
75438;BME280;64015;49.392;15.582;2023-03-01T07:25:51;96521.53;;;-3.87;94.46
75438;BME280;64015;49.392;15.582;2023-03-01T07:28:22;96521.72;;;-3.80;94.08
75438;BME280;64015;49.392;15.582;2023-03-01T07:30:48;96520.25;;;-3.66;93.05
75438;BME280;64015;49.392;15.582;2023-03-01T07:33:14;96517.38;;;-3.55;91.98
75438;BME280;64015;49.392;15.582;2023-03-01T07:35:40;96515.44;;;-3.37;89.37
75438;BME280;64015;49.392;15.582;2023-03-01T07:38:08;96523.66;;;-3.17;87.68
75438;BME280;64015;49.392;15.582;2023-03-01T07:40:34;96520.25;;;-3.10;86.55
75438;BME280;64015;49.392;15.582;2023-03-01T07:42:59;96519.09;;;-2.91;86.54
75438;BME280;64015;49.392;15.582;2023-03-01T07:45:28;96512.78;;;-2.80;86.68
75438;BME280;64015;49.392;15.582;2023-03-01T07:47:54;96515.34;;;-2.72;84.92
75438;BME280;64015;49.392;15.582;2023-03-01T07:50:21;96526.94;;;-2.60;82.83
75438;BME280;64015;49.392;15.582;2023-03-01T07:52:48;96518.81;;;-2.57;83.51
75438;BME280;64015;49.392;15.582;2023-03-01T07:55:15;96521.84;;;-2.45;81.15
75438;BME280;64015;49.392;15.582;2023-03-01T07:57:41;96520.94;;;-2.21;80.81
75438;BME280;64015;49.392;15.582;2023-03-01T08:00:09;96521.47;;;-2.03;78.43
75438;BME280;64015;49.392;15.582;2023-03-01T08:02:35;96528.53;;;-1.89;77.94
75438;BME280;64015;49.392;15.582;2023-03-01T08:05:01;96515.16;;;-1.70;76.79
75438;BME280;64015;49.392;15.582;2023-03-01T08:07:27;96514.88;;;-1.52;74.72
75438;BME280;64015;49.392;15.582;2023-03-01T08:09:52;96510.91;;;-1.40;74.39
75438;BME280;64015;49.392;15.582;2023-03-01T08:12:18;96518.69;;;-1.25;73.19
75438;BME280;64015;49.392;15.582;2023-03-01T08:14:44;96512.63;;;-1.32;74.79
75438;BME280;64015;49.392;15.582;2023-03-01T08:17:10;96518.63;;;-1.17;73.66
75438;BME280;64015;49.392;15.582;2023-03-01T08:19:36;96513.81;;;-1.05;72.00
75438;BME280;64015;49.392;15.582;2023-03-01T08:22:02;96518.34;;;-1.22;73.41
75438;BME280;64015;49.392;15.582;2023-03-01T08:24:28;96514.16;;;-1.23;73.82
75438;BME280;64015;49.392;15.582;2023-03-01T08:26:57;96530.59;;;-1.16;73.50
75438;BME280;64015;49.392;15.582;2023-03-01T08:29:23;96519.00;;;-1.05;75.47
75438;BME280;64015;49.392;15.582;2023-03-01T08:31:50;96520.53;;;-0.82;73.37
75438;BME280;64015;49.392;15.582;2023-03-01T08:34:17;96527.38;;;-0.66;74.48
75438;BME280;64015;49.392;15.582;2023-03-01T08:36:45;96519.72;;;-0.23;71.75
75438;BME280;64015;49.392;15.582;2023-03-01T08:39:14;96521.34;;;-0.22;70.36
75438;BME280;64015;49.392;15.582;2023-03-01T08:41:40;96509.59;;;-0.04;70.19
75438;BME280;64015;49.392;15.582;2023-03-01T08:44:07;96515.88;;;-0.13;69.56
75438;BME280;64015;49.392;15.582;2023-03-01T08:46:35;96512.19;;;-0.04;70.34
75438;BME280;64015;49.392;15.582;2023-03-01T08:49:05;96512.16;;;0.11;70.28
75438;BME280;64015;49.392;15.582;2023-03-01T08:51:34;96514.44;;;0.21;69.29
75438;BME280;64015;49.392;15.582;2023-03-01T08:54:04;96511.72;;;0.29;70.05
75438;BME280;64015;49.392;15.582;2023-03-01T08:56:30;96515.81;;;0.38;68.51
75438;BME280;64015;49.392;15.582;2023-03-01T08:59:08;96511.00;;;0.56;68.00
75438;BME280;64015;49.392;15.582;2023-03-01T09:01:37;96515.22;;;0.85;67.38
75438;BME280;64015;49.392;15.582;2023-03-01T09:04:04;96516.78;;;1.01;65.88
75438;BME280;64015;49.392;15.582;2023-03-01T09:06:31;96504.25;;;1.11;64.51
75438;BME280;64015;49.392;15.582;2023-03-01T09:08:58;96508.50;;;1.19;64.60
75438;BME280;64015;49.392;15.582;2023-03-01T09:11:24;96512.72;;;1.20;65.17
75438;BME280;64015;49.392;15.582;2023-03-01T09:13:50;96507.81;;;1.38;63.57
75438;BME280;64015;49.392;15.582;2023-03-01T09:16:17;96514.06;;;1.50;63.58
75438;BME280;64015;49.392;15.582;2023-03-01T09:18:43;96513.97;;;1.65;63.31
75438;BME280;64015;49.392;15.582;2023-03-01T09:21:14;96511.22;;;1.73;62.47
75438;BME280;64015;49.392;15.582;2023-03-01T09:23:42;96514.69;;;1.93;63.35
75438;BME280;64015;49.392;15.582;2023-03-01T09:26:10;96507.09;;;1.98;62.18
75438;BME280;64015;49.392;15.582;2023-03-01T09:28:37;96502.72;;;2.05;62.13
75438;BME280;64015;49.392;15.582;2023-03-01T09:31:03;96499.97;;;2.20;61.32
75438;BME280;64015;49.392;15.582;2023-03-01T09:33:32;96506.41;;;2.31;60.55
75438;BME280;64015;49.392;15.582;2023-03-01T09:36:02;96501.03;;;2.52;61.08
75438;BME280;64015;49.392;15.582;2023-03-01T09:38:29;96492.44;;;2.84;60.33
75438;BME280;64015;49.392;15.582;2023-03-01T09:40:55;96486.00;;;3.00;59.16
75438;BME280;64015;49.392;15.582;2023-03-01T09:46:08;96492.81;;;3.21;57.63
75438;BME280;64015;49.392;15.582;2023-03-01T09:49:10;96493.41;;;3.23;56.91
75438;BME280;64015;49.392;15.582;2023-03-01T09:51:37;96487.56;;;3.34;57.70
75438;BME280;64015;49.392;15.582;2023-03-01T09:54:06;96486.38;;;3.36;57.07
75438;BME280;64015;49.392;15.582;2023-03-01T09:57:11;96487.53;;;3.60;57.34
75438;BME280;64015;49.392;15.582;2023-03-01T10:05:19;96477.91;;;3.99;56.19
75438;BME280;64015;49.392;15.582;2023-03-01T10:10:43;96472.81;;;4.17;55.43
75438;BME280;64015;49.392;15.582;2023-03-01T10:13:24;96468.06;;;4.70;52.55
75438;BME280;64015;49.392;15.582;2023-03-01T10:15:57;96471.56;;;5.69;54.85
75438;BME280;64015;49.392;15.582;2023-03-01T10:18:29;96467.06;;;6.54;49.21
75438;BME280;64015;49.392;15.582;2023-03-01T10:20:59;96457.88;;;7.44;46.71
75438;BME280;64015;49.392;15.582;2023-03-01T10:23:27;96463.13;;;7.68;44.36
75438;BME280;64015;49.392;15.582;2023-03-01T10:31:24;96451.44;;;8.15;44.84
75438;BME280;64015;49.392;15.582;2023-03-01T10:33:53;96455.91;;;8.88;43.90
75438;BME280;64015;49.392;15.582;2023-03-01T10:36:22;96448.06;;;9.10;41.24
75438;BME280;64015;49.392;15.582;2023-03-01T10:38:56;96445.03;;;9.02;41.63
75438;BME280;64015;49.392;15.582;2023-03-01T10:41:24;96444.94;;;9.13;41.68
75438;BME280;64015;49.392;15.582;2023-03-01T10:43:53;96444.22;;;9.18;41.18
75438;BME280;64015;49.392;15.582;2023-03-01T10:46:29;96435.47;;;8.95;40.67
75438;BME280;64015;49.392;15.582;2023-03-01T10:49:05;96431.19;;;9.28;40.43
75438;BME280;64015;49.392;15.582;2023-03-01T10:51:32;96432.97;;;9.83;39.71
75438;BME280;64015;49.392;15.582;2023-03-01T10:53:58;96427.72;;;9.61;39.87
75438;BME280;64015;49.392;15.582;2023-03-01T10:56:23;96418.09;;;9.71;39.86
75438;BME280;64015;49.392;15.582;2023-03-01T10:58:58;96416.06;;;10.00;39.46
75438;BME280;64015;49.392;15.582;2023-03-01T11:01:25;96411.38;;;10.56;38.24
75438;BME280;64015;49.392;15.582;2023-03-01T11:06:34;96414.09;;;10.39;37.40
75438;BME280;64015;49.392;15.582;2023-03-01T11:09:18;96412.34;;;10.01;38.36
75438;BME280;64015;49.392;15.582;2023-03-01T11:11:45;96406.69;;;9.88;38.88
75438;BME280;64015;49.392;15.582;2023-03-01T11:14:20;96418.22;;;9.82;38.66
75438;BME280;64015;49.392;15.582;2023-03-01T11:16:57;96412.31;;;9.74;38.79
75438;BME280;64015;49.392;15.582;2023-03-01T11:19:25;96398.38;;;9.52;38.89
75438;BME280;64015;49.392;15.582;2023-03-01T11:24:48;96407.41;;;9.01;40.60
75438;BME280;64015;49.392;15.582;2023-03-01T11:27:38;96408.81;;;9.25;40.75
75438;BME280;64015;49.392;15.582;2023-03-01T11:35:37;96401.19;;;8.90;42.13
75438;BME280;64015;49.392;15.582;2023-03-01T11:38:20;96399.25;;;9.03;40.52
75438;BME280;64015;49.392;15.582;2023-03-01T11:41:06;96405.66;;;9.07;40.78
75438;BME280;64015;49.392;15.582;2023-03-01T11:54:02;96381.59;;;11.40;37.14
75438;BME280;64015;49.392;15.582;2023-03-01T11:56:38;96371.66;;;11.67;35.84
75438;BME280;64015;49.392;15.582;2023-03-01T12:04:51;96358.59;;;13.24;33.24
75438;BME280;64015;49.392;15.582;2023-03-01T12:07:46;96363.88;;;13.34;32.78
75438;BME280;64015;49.392;15.582;2023-03-01T12:10:20;96357.81;;;13.88;32.46
75438;BME280;64015;49.392;15.582;2023-03-01T12:31:39;96337.31;;;13.50;32.05
75438;BME280;64015;49.392;15.582;2023-03-01T12:40:27;96334.25;;;12.97;33.46
75438;BME280;64015;49.392;15.582;2023-03-01T12:48:53;96324.41;;;11.81;35.89
75438;BME280;64015;49.392;15.582;2023-03-01T12:51:26;96327.31;;;11.79;36.11
75438;BME280;64015;49.392;15.582;2023-03-01T12:53:55;96324.84;;;11.57;36.22
75438;BME280;64015;49.392;15.582;2023-03-01T12:56:25;96325.66;;;11.68;36.66
75438;BME280;64015;49.392;15.582;2023-03-01T12:59:03;96317.09;;;12.13;36.11
75438;BME280;64015;49.392;15.582;2023-03-01T13:04:58;96322.06;;;12.00;36.00
75438;BME280;64015;49.392;15.582;2023-03-01T13:07:35;96305.66;;;12.84;34.55
75438;BME280;64015;49.392;15.582;2023-03-01T13:10:19;96313.22;;;14.34;32.66
75438;BME280;64015;49.392;15.582;2023-03-01T13:13:01;96308.78;;;14.64;31.84
75438;BME280;64015;49.392;15.582;2023-03-01T13:15:33;96312.94;;;14.70;31.24
75438;BME280;64015;49.392;15.582;2023-03-01T13:31:02;96316.81;;;18.08;26.57
75438;BME280;64015;49.392;15.582;2023-03-01T13:35:55;96312.78;;;16.55;28.49
75438;BME280;64015;49.392;15.582;2023-03-01T13:41:16;96318.16;;;15.09;30.42
75438;BME280;64015;49.392;15.582;2023-03-01T13:43:44;96322.78;;;15.22;30.96
75438;BME280;64015;49.392;15.582;2023-03-01T13:46:22;96323.94;;;14.87;32.04
75438;BME280;64015;49.392;15.582;2023-03-01T13:48:53;96315.41;;;14.61;31.83
75438;BME280;64015;49.392;15.582;2023-03-01T13:51:24;96317.00;;;14.62;32.20
75438;BME280;64015;49.392;15.582;2023-03-01T13:53:51;96322.69;;;14.06;33.60
75438;BME280;64015;49.392;15.582;2023-03-01T13:56:23;96321.19;;;13.41;34.83
75438;BME280;64015;49.392;15.582;2023-03-01T13:58:55;96317.38;;;12.32;36.57
75438;BME280;64015;49.392;15.582;2023-03-01T14:01:34;96312.81;;;11.97;37.53
75438;BME280;64015;49.392;15.582;2023-03-01T14:04:01;96313.66;;;12.28;37.78
75438;BME280;64015;49.392;15.582;2023-03-01T14:06:32;96314.97;;;12.41;37.57
75438;BME280;64015;49.392;15.582;2023-03-01T14:14:46;96334.81;;;11.40;38.68
75438;BME280;64015;49.392;15.582;2023-03-01T14:20:08;96333.91;;;11.14;39.23
75438;BME280;64015;49.392;15.582;2023-03-01T14:22:35;96326.22;;;11.08;39.40
75438;BME280;64015;49.392;15.582;2023-03-01T14:25:05;96331.22;;;10.62;39.73
75438;BME280;64015;49.392;15.582;2023-03-01T14:27:35;96340.53;;;10.38;40.75
75438;BME280;64015;49.392;15.582;2023-03-01T14:30:37;96338.97;;;10.15;41.86
75438;BME280;64015;49.392;15.582;2023-03-01T14:33:06;96345.03;;;9.89;42.73
75438;BME280;64015;49.392;15.582;2023-03-01T14:35:56;96344.66;;;9.53;42.43
75438;BME280;64015;49.392;15.582;2023-03-01T14:38:30;96346.06;;;9.17;43.39
75438;BME280;64015;49.392;15.582;2023-03-01T14:40:59;96339.84;;;9.07;43.84
75438;BME280;64015;49.392;15.582;2023-03-01T14:43:29;96335.94;;;9.09;43.75
75438;BME280;64015;49.392;15.582;2023-03-01T14:45:55;96336.47;;;8.89;44.68
75438;BME280;64015;49.392;15.582;2023-03-01T14:48:21;96330.38;;;9.27;43.78
75438;BME280;64015;49.392;15.582;2023-03-01T14:50:47;96327.13;;;9.42;43.55
75438;BME280;64015;49.392;15.582;2023-03-01T14:53:20;96327.31;;;9.14;43.89
75438;BME280;64015;49.392;15.582;2023-03-01T14:55:55;96330.41;;;9.11;44.23
75438;BME280;64015;49.392;15.582;2023-03-01T14:58:24;96317.84;;;8.57;45.23
75438;BME280;64015;49.392;15.582;2023-03-01T15:00:56;96325.41;;;9.31;43.61